Time;durP1;ratioP1;P1;durP2;ratioP2;P2;SDS_P1;SDS_P2;PMS_P1;PMS_P2;Temp;Humidity;BMP_temperature;BMP_pressure;BME280_temperature;BME280_humidity;BME280_pressure;Samples;Min_cycle;Max_cycle;Signal;HPM_P1;HPM_P2
2022/10/27 00:01:07;;;;;;;;;;;19.60;62.50;;;;;;5072780;28;19912;-59
2022/10/27 00:03:33;;;;;;;;;;;19.60;62.50;;;;;;5072955;28;19909;-59
2022/10/27 00:06:01;;;;;;;;;;;19.60;62.70;;;;;;5072630;28;20280;-59
2022/10/27 00:08:27;;;;;;;;;;;19.50;62.60;;;;;;5062526;28;19908;-59
2022/10/27 00:10:56;;;;;;;;;;;19.50;62.80;;;;;;5092152;28;19995;-58
2022/10/27 00:13:21;;;;;;;;;;;19.50;62.90;;;;;;5075295;28;20375;-59
2022/10/27 00:15:54;;;;;;;;;;;19.50;63.00;;;;;;5092915;28;19908;-58
2022/10/27 00:18:19;;;;;;;;;;;19.50;62.90;;;;;;5093219;28;19908;-59
2022/10/27 00:20:45;;;;;;;;;;;19.50;62.80;;;;;;5092808;28;20332;-59
2022/10/27 00:23:10;;;;;;;;;;;19.50;63.00;;;;;;5074802;28;19908;-58
2022/10/27 00:25:35;;;;;;;;;;;19.50;62.90;;;;;;5092280;28;19912;-58
2022/10/27 00:28:01;;;;;;;;;;;19.50;62.90;;;;;;5092959;28;19999;-58
2022/10/27 00:30:26;;;;;;;;;;;19.50;62.90;;;;;;5074863;28;19957;-58
2022/10/27 00:32:52;;;;;;;;;;;19.50;62.90;;;;;;5091078;28;19919;-59
2022/10/27 00:35:17;;;;;;;;;;;19.50;62.90;;;;;;5072449;28;19908;-59
2022/10/27 00:37:43;;;;;;;;;;;19.40;62.90;;;;;;5076811;28;20376;-59
2022/10/27 00:40:09;;;;;;;;;;;19.40;62.90;;;;;;5096059;28;20396;-59
2022/10/27 00:42:34;;;;;;;;;;;19.40;62.90;;;;;;5078985;28;20412;-59
2022/10/27 00:44:59;;;;;;;;;;;19.40;62.90;;;;;;5078618;28;20359;-59
2022/10/27 00:47:26;;;;;;;;;;;19.40;63.00;;;;;;5078928;28;20375;-59
2022/10/27 00:49:53;;;;;;;;;;;19.40;63.10;;;;;;5078675;28;19912;-58
2022/10/27 00:52:27;;;;;;;;;;;19.40;63.10;;;;;;5078763;28;19909;-58
2022/10/27 00:54:52;;;;;;;;;;;19.40;63.00;;;;;;5095942;28;19915;-58
2022/10/27 00:57:18;;;;;;;;;;;19.40;62.90;;;;;;5078512;28;19908;-59
2022/10/27 00:59:43;;;;;;;;;;;19.40;62.90;;;;;;5078496;28;19919;-59
2022/10/27 01:02:09;;;;;;;;;;;19.40;62.80;;;;;;5078383;28;19908;-59
2022/10/27 01:04:46;;;;;;;;;;;19.40;62.80;;;;;;5093235;28;20537;-59
2022/10/27 01:07:12;;;;;;;;;;;19.40;62.80;;;;;;5058276;28;19927;-59
2022/10/27 01:09:37;;;;;;;;;;;19.40;62.90;;;;;;5075014;28;19912;-59
2022/10/27 01:12:03;;;;;;;;;;;19.40;63.10;;;;;;5077762;28;19914;-59
2022/10/27 01:14:28;;;;;;;;;;;19.40;63.10;;;;;;5096487;28;19934;-58
2022/10/27 01:17:13;;;;;;;;;;;19.40;63.10;;;;;;5078135;28;19908;-59
2022/10/27 01:19:44;;;;;;;;;;;19.40;63.10;;;;;;5096210;28;19908;-59
2022/10/27 01:22:24;;;;;;;;;;;19.40;63.00;;;;;;5096476;28;19931;-59
2022/10/27 01:25:02;;;;;;;;;;;19.40;63.00;;;;;;5095448;28;19916;-59
2022/10/27 01:27:46;;;;;;;;;;;19.40;62.80;;;;;;5078161;28;20323;-59
2022/10/27 01:30:13;;;;;;;;;;;19.40;62.70;;;;;;5095971;28;19993;-59
2022/10/27 01:32:38;;;;;;;;;;;19.40;62.80;;;;;;5096552;28;19915;-59
2022/10/27 01:35:27;;;;;;;;;;;19.40;62.80;;;;;;5095826;28;19908;-59
2022/10/27 01:38:09;;;;;;;;;;;19.40;62.90;;;;;;5066902;28;19970;-58
2022/10/27 01:40:36;;;;;;;;;;;19.40;62.80;;;;;;5076634;28;19912;-59
2022/10/27 01:43:03;;;;;;;;;;;19.40;62.70;;;;;;5061034;28;19908;-59
2022/10/27 01:45:30;;;;;;;;;;;19.50;62.60;;;;;;5059281;28;19912;-58
2022/10/27 01:47:55;;;;;;;;;;;19.50;62.50;;;;;;5056783;28;20407;-58
2022/10/27 01:50:24;;;;;;;;;;;19.60;62.40;;;;;;5075041;28;19908;-59
2022/10/27 01:52:50;;;;;;;;;;;19.60;62.20;;;;;;5057704;28;20037;-59
2022/10/27 01:55:20;;;;;;;;;;;19.60;62.20;;;;;;5074476;28;20372;-59
2022/10/27 01:58:04;;;;;;;;;;;19.60;62.10;;;;;;5057573;28;20015;-59
2022/10/27 02:00:30;;;;;;;;;;;19.60;62.10;;;;;;5057002;28;19916;-59
2022/10/27 02:03:02;;;;;;;;;;;19.60;62.00;;;;;;5075302;28;19916;-59
2022/10/27 02:05:35;;;;;;;;;;;19.60;62.00;;;;;;5057098;28;19915;-59
2022/10/27 02:08:08;;;;;;;;;;;19.60;62.00;;;;;;5078766;28;20291;-59
2022/10/27 02:10:35;;;;;;;;;;;19.60;62.00;;;;;;5076714;28;20314;-59
2022/10/27 02:13:00;;;;;;;;;;;19.60;62.10;;;;;;5077268;28;19908;-59
2022/10/27 02:15:34;;;;;;;;;;;19.60;62.20;;;;;;5095062;28;20402;-59
2022/10/27 02:18:01;;;;;;;;;;;19.50;62.10;;;;;;5077378;28;19970;-59
2022/10/27 02:20:28;;;;;;;;;;;19.50;62.20;;;;;;5094827;28;20371;-59
2022/10/27 02:22:53;;;;;;;;;;;19.50;62.20;;;;;;5077168;28;19908;-59
2022/10/27 02:25:20;;;;;;;;;;;19.50;62.30;;;;;;5094090;28;19984;-59
2022/10/27 02:27:48;;;;;;;;;;;19.50;62.30;;;;;;5077039;28;19908;-59
2022/10/27 02:30:14;;;;;;;;;;;19.50;62.50;;;;;;5076662;28;20007;-59
2022/10/27 02:32:39;;;;;;;;;;;19.50;62.40;;;;;;5076144;28;19958;-59
2022/10/27 02:35:05;;;;;;;;;;;19.50;62.40;;;;;;5056465;28;19914;-59
2022/10/27 02:37:35;;;;;;;;;;;19.50;62.50;;;;;;5056728;28;19967;-58
2022/10/27 02:40:00;;;;;;;;;;;19.50;62.40;;;;;;5075921;28;19913;-59
2022/10/27 02:42:25;;;;;;;;;;;19.50;62.40;;;;;;5077071;28;19922;-58
2022/10/27 02:44:51;;;;;;;;;;;19.50;62.30;;;;;;5094701;28;19908;-59
2022/10/27 02:47:16;;;;;;;;;;;19.50;62.50;;;;;;5094587;28;19998;-59
2022/10/27 02:49:43;;;;;;;;;;;19.50;62.50;;;;;;5094568;28;19915;-59
2022/10/27 02:52:08;;;;;;;;;;;19.40;62.40;;;;;;5076296;28;20312;-59
2022/10/27 02:54:34;;;;;;;;;;;19.50;62.40;;;;;;5094053;28;19908;-59
2022/10/27 02:56:59;;;;;;;;;;;19.50;62.50;;;;;;5094100;28;19908;-58
2022/10/27 02:59:25;;;;;;;;;;;19.40;62.40;;;;;;5094343;28;19999;-59
2022/10/27 03:01:50;;;;;;;;;;;19.40;62.30;;;;;;5094299;28;20232;-59
2022/10/27 03:04:16;;;;;;;;;;;19.40;62.40;;;;;;5093740;28;20030;-59
2022/10/27 03:06:41;;;;;;;;;;;19.40;62.50;;;;;;5055821;28;19927;-59
2022/10/27 03:09:06;;;;;;;;;;;19.40;62.50;;;;;;5086716;28;19977;-58
2022/10/27 03:11:32;;;;;;;;;;;19.40;62.50;;;;;;5093253;28;19977;-58
2022/10/27 03:13:57;;;;;;;;;;;19.40;62.50;;;;;;5094066;28;19914;-58
2022/10/27 03:16:23;;;;;;;;;;;19.40;62.40;;;;;;5093928;28;19947;-59
2022/10/27 03:18:48;;;;;;;;;;;19.50;62.60;;;;;;5094036;28;19973;-59
2022/10/27 03:21:14;;;;;;;;;;;19.40;62.40;;;;;;5093690;28;19999;-59
2022/10/27 03:23:39;;;;;;;;;;;19.40;62.50;;;;;;5093991;28;19916;-58
2022/10/27 03:26:05;;;;;;;;;;;19.40;62.60;;;;;;5092925;28;19909;-59
2022/10/27 03:28:34;;;;;;;;;;;19.40;62.50;;;;;;5093787;28;19909;-59
2022/10/27 03:31:02;;;;;;;;;;;19.40;62.50;;;;;;5093715;28;20295;-59
2022/10/27 03:33:28;;;;;;;;;;;19.50;62.40;;;;;;5075593;28;19912;-59
2022/10/27 03:35:53;;;;;;;;;;;19.50;62.30;;;;;;5093496;28;20489;-59
2022/10/27 03:38:19;;;;;;;;;;;19.50;62.30;;;;;;5075692;28;20321;-59
2022/10/27 03:40:44;;;;;;;;;;;19.40;62.40;;;;;;5092584;28;19912;-59
2022/10/27 03:43:10;;;;;;;;;;;19.40;62.50;;;;;;5093627;28;19915;-59
2022/10/27 03:45:35;;;;;;;;;;;19.40;62.50;;;;;;5055850;28;19908;-59
2022/10/27 03:48:03;;;;;;;;;;;19.30;62.50;;;;;;5073516;28;19909;-59
2022/10/27 03:50:29;;;;;;;;;;;19.30;62.60;;;;;;5072671;28;19909;-59
2022/10/27 03:52:54;;;;;;;;;;;19.30;62.50;;;;;;5073187;28;19962;-58
2022/10/27 03:55:20;;;;;;;;;;;19.40;62.50;;;;;;5071865;28;19909;-58
2022/10/27 03:57:45;;;;;;;;;;;19.40;62.40;;;;;;5073089;28;19909;-59
2022/10/27 04:00:11;;;;;;;;;;;19.40;62.40;;;;;;5072671;28;19960;-58
2022/10/27 04:02:36;;;;;;;;;;;19.40;62.30;;;;;;5072851;28;19912;-59
2022/10/27 04:05:02;;;;;;;;;;;19.40;62.30;;;;;;5072706;28;19909;-58
2022/10/27 04:07:27;;;;;;;;;;;19.40;62.30;;;;;;5072680;28;19920;-58
2022/10/27 04:09:53;;;;;;;;;;;19.40;63.10;;;;;;5072965;28;20279;-59
2022/10/27 04:12:18;;;;;;;;;;;19.40;62.30;;;;;;5092516;28;19912;-59
2022/10/27 04:14:43;;;;;;;;;;;19.40;62.40;;;;;;5092952;28;20194;-59
2022/10/27 04:17:09;;;;;;;;;;;19.40;62.40;;;;;;5092869;28;19994;-59
2022/10/27 04:19:34;;;;;;;;;;;19.40;62.40;;;;;;5092933;28;20411;-59
2022/10/27 04:22:00;;;;;;;;;;;19.40;62.30;;;;;;5092948;28;19912;-59
2022/10/27 04:24:25;;;;;;;;;;;19.40;62.30;;;;;;5092372;28;19908;-58
2022/10/27 04:26:51;;;;;;;;;;;19.40;62.20;;;;;;5092460;28;19995;-59
2022/10/27 04:29:16;;;;;;;;;;;19.40;62.20;;;;;;5092734;28;19948;-58
2022/10/27 04:31:41;;;;;;;;;;;19.40;62.30;;;;;;5092947;28;19908;-58
2022/10/27 04:34:07;;;;;;;;;;;19.40;62.30;;;;;;5079316;28;19920;-59
2022/10/27 04:36:32;;;;;;;;;;;19.40;62.40;;;;;;5072441;28;19920;-58
2022/10/27 04:38:58;;;;;;;;;;;19.40;62.40;;;;;;5066106;28;19915;-59
2022/10/27 04:41:23;;;;;;;;;;;19.40;62.50;;;;;;5091789;28;19912;-59
2022/10/27 04:43:49;;;;;;;;;;;19.40;62.40;;;;;;5092770;28;20042;-58
2022/10/27 04:46:15;;;;;;;;;;;19.40;63.20;;;;;;5092549;28;19908;-59
2022/10/27 04:48:40;;;;;;;;;;;19.40;62.20;;;;;;5092734;28;19908;-59
2022/10/27 04:51:05;;;;;;;;;;;19.40;62.20;;;;;;5092876;28;20093;-59
2022/10/27 04:53:31;;;;;;;;;;;19.40;62.20;;;;;;5092704;28;19972;-59
2022/10/27 04:55:56;;;;;;;;;;;19.40;62.20;;;;;;5091586;28;19916;-59
2022/10/27 04:58:22;;;;;;;;;;;19.50;62.10;;;;;;5092714;28;19912;-58
2022/10/27 05:00:47;;;;;;;;;;;19.40;62.00;;;;;;5092314;28;19912;-59
2022/10/27 05:03:13;;;;;;;;;;;19.40;62.00;;;;;;5092540;28;19914;-59
2022/10/27 05:05:38;;;;;;;;;;;19.50;62.10;;;;;;5080237;28;19915;-58
2022/10/27 05:08:04;;;;;;;;;;;19.50;62.10;;;;;;5076233;28;19927;-59
2022/10/27 05:10:30;;;;;;;;;;;19.50;62.00;;;;;;5091318;28;19961;-58
2022/10/27 05:12:55;;;;;;;;;;;19.50;62.10;;;;;;5074424;28;20016;-59
2022/10/27 05:15:21;;;;;;;;;;;19.50;62.10;;;;;;5092025;28;19962;-59
2022/10/27 05:17:46;;;;;;;;;;;19.50;62.00;;;;;;5092462;28;19919;-58
2022/10/27 05:20:12;;;;;;;;;;;19.50;62.10;;;;;;5092005;28;19926;-58
2022/10/27 05:22:38;;;;;;;;;;;19.50;62.10;;;;;;5093728;28;19945;-58
2022/10/27 05:25:04;;;;;;;;;;;19.50;62.10;;;;;;5095492;28;19908;-59
2022/10/27 05:27:30;;;;;;;;;;;19.50;62.00;;;;;;5096092;28;19991;-59
2022/10/27 05:29:55;;;;;;;;;;;19.50;62.10;;;;;;5077757;28;19954;-58
2022/10/27 05:32:21;;;;;;;;;;;19.50;62.10;;;;;;5096047;28;20264;-59
2022/10/27 05:34:46;;;;;;;;;;;19.50;62.10;;;;;;5095794;28;20287;-59
2022/10/27 05:37:11;;;;;;;;;;;19.40;61.90;;;;;;5078091;28;20041;-59
2022/10/27 05:39:37;;;;;;;;;;;19.40;61.90;;;;;;5095253;28;19992;-59
2022/10/27 05:42:02;;;;;;;;;;;19.40;62.80;;;;;;5095348;28;19909;-59
2022/10/27 05:44:28;;;;;;;;;;;19.40;62.00;;;;;;5095680;28;19908;-59
2022/10/27 05:46:54;;;;;;;;;;;19.40;62.10;;;;;;5095769;28;19908;-58
2022/10/27 05:49:19;;;;;;;;;;;19.40;62.00;;;;;;5095546;28;19908;-59
2022/10/27 05:51:45;;;;;;;;;;;19.40;62.10;;;;;;5095639;28;19909;-59
2022/10/27 05:54:10;;;;;;;;;;;19.40;62.10;;;;;;5090360;28;19987;-58
2022/10/27 05:56:35;;;;;;;;;;;19.40;62.20;;;;;;5074404;28;19912;-59
2022/10/27 05:59:01;;;;;;;;;;;19.40;62.20;;;;;;5075307;28;19908;-59
2022/10/27 06:01:26;;;;;;;;;;;19.30;62.10;;;;;;5074920;28;19916;-58
2022/10/27 06:03:52;;;;;;;;;;;19.40;62.20;;;;;;5075064;28;20237;-59
2022/10/27 06:06:17;;;;;;;;;;;19.40;62.20;;;;;;5074791;28;19952;-59
2022/10/27 06:08:43;;;;;;;;;;;19.40;62.10;;;;;;5084587;28;19908;-59
2022/10/27 06:11:08;;;;;;;;;;;19.40;62.10;;;;;;5094468;28;19908;-59
2022/10/27 06:13:34;;;;;;;;;;;19.40;62.00;;;;;;5095322;28;20447;-59
2022/10/27 06:15:59;;;;;;;;;;;19.40;62.10;;;;;;5094923;28;20259;-59
2022/10/27 06:18:24;;;;;;;;;;;19.40;62.10;;;;;;5076873;28;20359;-59
2022/10/27 06:20:50;;;;;;;;;;;19.40;62.10;;;;;;5094780;28;20359;-58
2022/10/27 06:23:15;;;;;;;;;;;19.40;62.00;;;;;;5095012;28;20351;-59
2022/10/27 06:25:41;;;;;;;;;;;19.30;61.90;;;;;;5094046;28;19908;-59
2022/10/27 06:28:06;;;;;;;;;;;19.30;61.90;;;;;;5095095;28;19969;-59
2022/10/27 06:30:32;;;;;;;;;;;19.40;62.00;;;;;;5094689;28;19908;-59
2022/10/27 06:32:57;;;;;;;;;;;19.40;61.90;;;;;;5091146;28;20005;-59
2022/10/27 06:35:23;;;;;;;;;;;19.40;61.90;;;;;;5073811;28;19919;-59
2022/10/27 06:37:48;;;;;;;;;;;19.40;61.80;;;;;;5076356;28;19908;-59
2022/10/27 06:40:14;;;;;;;;;;;19.40;61.70;;;;;;5093715;28;19912;-59
2022/10/27 06:42:40;;;;;;;;;;;19.40;61.70;;;;;;5094710;28;19908;-59
2022/10/27 06:45:05;;;;;;;;;;;19.40;61.70;;;;;;5094392;28;19919;-59
2022/10/27 06:47:31;;;;;;;;;;;19.40;61.80;;;;;;5094834;28;19998;-59
2022/10/27 06:49:56;;;;;;;;;;;19.40;61.90;;;;;;5094340;28;20321;-59
2022/10/27 06:52:22;;;;;;;;;;;19.40;61.90;;;;;;5094489;28;19951;-58
2022/10/27 06:54:47;;;;;;;;;;;19.40;61.90;;;;;;5075736;28;19957;-59
2022/10/27 06:57:13;;;;;;;;;;;19.30;61.90;;;;;;5093952;28;19908;-59
2022/10/27 06:59:38;;;;;;;;;;;19.30;62.00;;;;;;5094227;28;19915;-59
2022/10/27 07:02:04;;;;;;;;;;;19.30;62.00;;;;;;5076141;28;19930;-59
2022/10/27 07:04:29;;;;;;;;;;;19.30;62.10;;;;;;5091689;28;19915;-59
2022/10/27 07:06:55;;;;;;;;;;;19.30;62.10;;;;;;5073914;28;19924;-58
2022/10/27 07:09:20;;;;;;;;;;;19.30;62.20;;;;;;5053290;28;19908;-59
2022/10/27 07:11:45;;;;;;;;;;;19.30;62.20;;;;;;5094026;28;19981;-58
2022/10/27 07:14:11;;;;;;;;;;;19.30;62.30;;;;;;5075759;28;19908;-58
2022/10/27 07:16:36;;;;;;;;;;;19.30;62.30;;;;;;5093827;28;19919;-58
2022/10/27 07:19:02;;;;;;;;;;;19.30;62.30;;;;;;5094160;28;20371;-59
2022/10/27 07:21:27;;;;;;;;;;;19.30;62.30;;;;;;5093617;28;19912;-59
2022/10/27 07:23:53;;;;;;;;;;;19.30;62.20;;;;;;5093787;28;19908;-59
2022/10/27 07:26:18;;;;;;;;;;;19.30;62.20;;;;;;5092666;28;20006;-59
2022/10/27 07:28:44;;;;;;;;;;;19.30;62.10;;;;;;5094072;28;20003;-59
2022/10/27 07:31:09;;;;;;;;;;;19.30;62.20;;;;;;5093658;28;19915;-59
2022/10/27 07:33:35;;;;;;;;;;;19.30;62.30;;;;;;5058698;28;20415;-59
2022/10/27 07:36:00;;;;;;;;;;;19.30;62.20;;;;;;5093482;28;19911;-59
2022/10/27 07:38:26;;;;;;;;;;;19.30;62.20;;;;;;5093706;28;19908;-59
2022/10/27 07:40:51;;;;;;;;;;;19.20;62.20;;;;;;5092480;28;19912;-59
2022/10/27 07:43:17;;;;;;;;;;;19.20;62.20;;;;;;5093612;28;20391;-58
2022/10/27 07:45:42;;;;;;;;;;;19.20;62.20;;;;;;5092855;28;20374;-59
2022/10/27 07:48:10;;;;;;;;;;;19.20;62.30;;;;;;5093147;28;19908;-58
2022/10/27 07:50:35;;;;;;;;;;;19.20;62.20;;;;;;5093426;28;19908;-58
2022/10/27 07:53:01;;;;;;;;;;;19.30;62.30;;;;;;5093367;28;19915;-59
2022/10/27 07:55:27;;;;;;;;;;;19.20;62.20;;;;;;5075795;28;19909;-58
2022/10/27 07:57:58;;;;;;;;;;;19.30;62.20;;;;;;5055223;28;19995;-59
2022/10/27 08:00:24;;;;;;;;;;;19.30;62.30;;;;;;5072653;28;19919;-59
2022/10/27 08:02:49;;;;;;;;;;;19.30;62.20;;;;;;5073042;28;20279;-59
2022/10/27 08:05:15;;;;;;;;;;;19.30;62.30;;;;;;5072771;28;19955;-59
2022/10/27 08:07:40;;;;;;;;;;;19.30;62.20;;;;;;5073733;28;19936;-59
2022/10/27 08:10:06;;;;;;;;;;;19.30;62.20;;;;;;5092159;28;19999;-59
2022/10/27 08:12:31;;;;;;;;;;;19.30;62.10;;;;;;5093160;28;19919;-59
2022/10/27 08:14:57;;;;;;;;;;;19.30;62.20;;;;;;5092931;28;19912;-58
2022/10/27 08:17:25;;;;;;;;;;;19.30;62.20;;;;;;5093005;28;20367;-58
2022/10/27 08:19:50;;;;;;;;;;;19.30;62.10;;;;;;5092656;28;19908;-58
2022/10/27 08:22:16;;;;;;;;;;;19.30;62.10;;;;;;5093241;28;20011;-59
2022/10/27 08:24:42;;;;;;;;;;;19.30;62.10;;;;;;5092486;28;20052;-59
2022/10/27 08:27:07;;;;;;;;;;;19.20;62.10;;;;;;5092373;28;20011;-58
2022/10/27 08:29:33;;;;;;;;;;;19.30;62.10;;;;;;5092720;28;19951;-59
2022/10/27 08:31:58;;;;;;;;;;;19.30;62.20;;;;;;5092755;28;19908;-59
2022/10/27 08:34:24;;;;;;;;;;;19.30;62.10;;;;;;5076831;28;20362;-59
2022/10/27 08:36:49;;;;;;;;;;;19.30;61.90;;;;;;5072536;28;19916;-58
2022/10/27 08:39:15;;;;;;;;;;;19.30;61.90;;;;;;5086373;28;19908;-59
2022/10/27 08:41:43;;;;;;;;;;;19.40;61.90;;;;;;5091545;28;19912;-59
2022/10/27 08:44:14;;;;;;;;;;;19.40;61.80;;;;;;5092721;28;19916;-59
2022/10/27 08:46:49;;;;;;;;;;;19.40;61.90;;;;;;5074526;28;20288;-59
2022/10/27 08:49:20;;;;;;;;;;;19.40;61.70;;;;;;5092643;28;20026;-59
2022/10/27 08:51:46;;;;;;;;;;;19.50;61.70;;;;;;5074405;28;19908;-59
2022/10/27 08:54:11;;;;;;;;;;;19.50;61.50;;;;;;5074453;28;19908;-58
2022/10/27 08:56:38;;;;;;;;;;;19.50;61.50;;;;;;5091583;28;19942;-59
2022/10/27 08:59:04;;;;;;;;;;;19.50;61.40;;;;;;5061111;28;19915;-59
2022/10/27 09:01:35;;;;;;;;;;;19.50;61.40;;;;;;5078443;28;20372;-59
2022/10/27 09:04:03;;;;;;;;;;;19.50;61.40;;;;;;5061706;28;19914;-59
2022/10/27 09:06:30;;;;;;;;;;;19.50;61.40;;;;;;5096177;28;20395;-59
2022/10/27 09:09:15;;;;;;;;;;;19.50;61.50;;;;;;5078590;28;19920;-59
2022/10/27 09:11:56;;;;;;;;;;;19.50;61.40;;;;;;5077244;28;19908;-59
2022/10/27 09:14:24;;;;;;;;;;;19.50;61.30;;;;;;5096277;28;20312;-59
2022/10/27 09:16:54;;;;;;;;;;;19.60;61.40;;;;;;5096548;28;20264;-59
2022/10/27 09:19:26;;;;;;;;;;;19.60;61.40;;;;;;5078059;28;19908;-59
2022/10/27 09:21:52;;;;;;;;;;;19.60;61.40;;;;;;5077022;28;20379;-59
2022/10/27 09:24:18;;;;;;;;;;;19.60;61.50;;;;;;5057808;28;19965;-59
2022/10/27 09:26:44;;;;;;;;;;;19.50;61.50;;;;;;5075567;28;20017;-58
2022/10/27 09:29:28;;;;;;;;;;;19.50;61.50;;;;;;5057936;28;19914;-59
2022/10/27 09:31:55;;;;;;;;;;;19.50;61.50;;;;;;5057783;28;19916;-59
2022/10/27 09:34:25;;;;;;;;;;;19.50;61.70;;;;;;5075618;28;20057;-59
2022/10/27 09:36:51;;;;;;;;;;;19.50;61.90;;;;;;5057691;28;19909;-58
2022/10/27 09:39:16;;;;;;;;;;;19.50;61.90;;;;;;5089635;28;19920;-59
2022/10/27 09:41:42;;;;;;;;;;;19.50;61.90;;;;;;5095062;28;20276;-59
2022/10/27 09:44:17;;;;;;;;;;;19.50;62.00;;;;;;5096006;28;20356;-59
2022/10/27 09:46:42;;;;;;;;;;;19.50;62.00;;;;;;5095737;28;20288;-58
2022/10/27 09:49:07;;;;;;;;;;;19.50;62.00;;;;;;5077581;28;20011;-59
2022/10/27 09:51:43;;;;;;;;;;;19.50;62.00;;;;;;5095834;28;19908;-59
2022/10/27 09:54:26;;;;;;;;;;;19.40;62.20;;;;;;5072080;28;19909;-59
2022/10/27 09:56:51;;;;;;;;;;;19.30;62.50;;;;;;5074921;28;19916;-59
2022/10/27 09:59:21;;;;;;;;;;;19.30;62.80;;;;;;5075182;28;20025;-59
2022/10/27 10:01:48;;;;;;;;;;;19.30;62.90;;;;;;5057362;28;19920;-59
2022/10/27 10:04:40;;;;;;;;;;;19.30;63.10;;;;;;5075022;28;20375;-59
2022/10/27 10:07:05;;;;;;;;;;;19.20;63.00;;;;;;5071811;28;19921;-59
2022/10/27 10:09:35;;;;;;;;;;;19.30;63.30;;;;;;5071955;28;20812;-59
2022/10/27 10:12:36;;;;;;;;;;;19.20;63.20;;;;;;5095011;28;19939;-59
2022/10/27 10:15:10;;;;;;;;;;;19.20;63.30;;;;;;5032583;28;19963;-59
2022/10/27 10:17:36;;;;;;;;;;;19.20;63.30;;;;;;5086100;28;19908;-59
2022/10/27 10:20:02;;;;;;;;;;;19.20;63.20;;;;;;5076683;28;19912;-58
2022/10/27 10:22:31;;;;;;;;;;;19.30;63.30;;;;;;5095389;28;19915;-59
2022/10/27 10:24:57;;;;;;;;;;;19.30;63.30;;;;;;5076011;28;19958;-59
2022/10/27 10:27:30;;;;;;;;;;;19.20;63.20;;;;;;5095058;28;19960;-59
2022/10/27 10:29:56;;;;;;;;;;;19.30;63.30;;;;;;5076820;28;19908;-58
2022/10/27 10:32:22;;;;;;;;;;;19.30;63.30;;;;;;5076882;28;20363;-59
2022/10/27 10:34:49;;;;;;;;;;;19.30;63.30;;;;;;5094803;28;19912;-58
2022/10/27 10:37:27;;;;;;;;;;;19.30;63.30;;;;;;5077135;28;20275;-59
2022/10/27 10:39:53;;;;;;;;;;;19.30;63.40;;;;;;5093785;28;19988;-59
2022/10/27 10:42:18;;;;;;;;;;;19.30;63.50;;;;;;5094845;28;19985;-59
2022/10/27 10:44:44;;;;;;;;;;;19.30;63.20;;;;;;5079687;28;19909;-59
2022/10/27 10:47:20;;;;;;;;;;;19.40;63.30;;;;;;5056390;28;20276;-59
2022/10/27 10:49:48;;;;;;;;;;;19.40;63.10;;;;;;5074437;28;19924;-59
2022/10/27 10:52:21;;;;;;;;;;;19.40;63.20;;;;;;5074285;28;20291;-59
2022/10/27 10:54:46;;;;;;;;;;;19.50;62.90;;;;;;5073781;28;19916;-59
2022/10/27 10:57:28;;;;;;;;;;;19.50;62.80;;;;;;5055736;28;20301;-59
2022/10/27 10:59:54;;;;;;;;;;;19.50;62.80;;;;;;5055938;28;19912;-59
2022/10/27 11:02:27;;;;;;;;;;;19.50;62.90;;;;;;5056196;28;20038;-59
2022/10/27 11:04:53;;;;;;;;;;;19.40;63.10;;;;;;5055992;28;19941;-59
2022/10/27 11:07:18;;;;;;;;;;;19.50;63.10;;;;;;5073761;28;19928;-59
2022/10/27 11:09:55;;;;;;;;;;;19.50;62.90;;;;;;5091432;28;20353;-59
2022/10/27 11:12:40;;;;;;;;;;;19.50;63.10;;;;;;5076352;28;19908;-59
2022/10/27 11:15:12;;;;;;;;;;;19.50;63.00;;;;;;5093261;28;19916;-59
2022/10/27 11:17:37;;;;;;;;;;;19.50;62.80;;;;;;5076029;28;19923;-59
2022/10/27 11:20:03;;;;;;;;;;;19.60;62.90;;;;;;5075417;28;19916;-58
2022/10/27 11:22:29;;;;;;;;;;;19.60;62.90;;;;;;5069493;28;19917;-59
2022/10/27 11:25:02;;;;;;;;;;;19.60;62.90;;;;;;5054718;28;19908;-59
2022/10/27 11:27:42;;;;;;;;;;;19.60;62.90;;;;;;5055613;28;19915;-59
2022/10/27 11:30:36;;;;;;;;;;;19.60;62.80;;;;;;5073359;28;19962;-59
2022/10/27 11:33:07;;;;;;;;;;;19.60;63.00;;;;;;5060380;28;19966;-59
2022/10/27 11:35:45;;;;;;;;;;;19.60;63.10;;;;;;5055330;28;19919;-59
2022/10/27 11:38:14;;;;;;;;;;;19.50;63.20;;;;;;5078686;28;19958;-59
2022/10/27 11:40:54;;;;;;;;;;;19.50;63.60;;;;;;5092672;28;19912;-60
2022/10/27 11:43:27;;;;;;;;;;;19.50;63.70;;;;;;5075566;28;19908;-59
2022/10/27 11:46:01;;;;;;;;;;;19.50;63.80;;;;;;5075199;28;19908;-60
2022/10/27 11:48:28;;;;;;;;;;;19.50;64.00;;;;;;5093545;28;19912;-60
2022/10/27 11:50:53;;;;;;;;;;;19.50;63.90;;;;;;5075180;28;19908;-60
2022/10/27 11:53:19;;;;;;;;;;;19.50;64.00;;;;;;5093376;28;19957;-60
2022/10/27 11:55:56;;;;;;;;;;;19.50;63.90;;;;;;5092463;28;19912;-60
2022/10/27 11:58:40;;;;;;;;;;;19.50;64.20;;;;;;5093387;28;19915;-59
2022/10/27 12:01:15;;;;;;;;;;;19.50;64.00;;;;;;5092974;28;20011;-59
2022/10/27 12:03:46;;;;;;;;;;;19.50;64.00;;;;;;5093217;28;19908;-60
2022/10/27 12:06:15;;;;;;;;;;;19.50;64.10;;;;;;5074775;28;19916;-59
2022/10/27 12:09:07;;;;;;;;;;;19.50;64.20;;;;;;5075463;28;19908;-59
2022/10/27 12:11:47;;;;;;;;;;;19.50;64.20;;;;;;5064763;28;19966;-59
2022/10/27 12:14:28;;;;;;;;;;;19.50;64.30;;;;;;5054855;28;19913;-60
2022/10/27 12:16:54;;;;;;;;;;;19.50;64.40;;;;;;5072729;28;20372;-59
2022/10/27 12:19:26;;;;;;;;;;;19.50;64.60;;;;;;5054811;28;19913;-60
2022/10/27 12:21:53;;;;;;;;;;;19.50;64.70;;;;;;5072649;28;20524;-60
2022/10/27 12:24:51;;;;;;;;;;;19.40;64.70;;;;;;5054664;28;19913;-60
2022/10/27 12:27:28;;;;;;;;;;;19.50;64.90;;;;;;5038496;28;19919;-60
2022/10/27 12:29:55;;;;;;;;;;;19.40;64.70;;;;;;5054704;28;20038;-60
2022/10/27 12:32:22;;;;;;;;;;;19.50;64.90;;;;;;5054237;28;19909;-60
2022/10/27 12:34:49;;;;;;;;;;;19.50;65.00;;;;;;5072497;28;19919;-60
2022/10/27 12:37:17;;;;;;;;;;;19.50;64.90;;;;;;5055020;28;19958;-60
2022/10/27 12:39:54;;;;;;;;;;;19.50;65.00;;;;;;5089863;28;19915;-59
2022/10/27 12:42:22;;;;;;;;;;;19.50;65.00;;;;;;5074703;28;19919;-60
2022/10/27 12:44:48;;;;;;;;;;;19.40;64.90;;;;;;5077125;28;20398;-60
2022/10/27 12:47:23;;;;;;;;;;;19.50;65.00;;;;;;5072453;28;19909;-60
2022/10/27 12:50:06;;;;;;;;;;;19.40;65.20;;;;;;5072309;28;20333;-59
2022/10/27 12:52:33;;;;;;;;;;;19.40;65.20;;;;;;5072839;28;19916;-60
2022/10/27 12:55:12;;;;;;;;;;;19.40;65.30;;;;;;5071691;28;19967;-59
2022/10/27 12:57:40;;;;;;;;;;;19.50;65.50;;;;;;5054804;28;19919;-59
2022/10/27 13:00:07;;;;;;;;;;;19.40;65.30;;;;;;5072193;28;19908;-59
2022/10/27 13:02:37;;;;;;;;;;;19.40;65.30;;;;;;5054312;28;19955;-59
2022/10/27 13:05:23;;;;;;;;;;;19.40;65.40;;;;;;5054218;28;19909;-59
2022/10/27 13:07:48;;;;;;;;;;;19.40;65.40;;;;;;5074112;28;20358;-59
2022/10/27 13:10:32;;;;;;;;;;;19.40;65.50;;;;;;5091417;28;19912;-60
2022/10/27 13:13:01;;;;;;;;;;;19.40;65.80;;;;;;5092508;28;19963;-60
2022/10/27 13:15:45;;;;;;;;;;;19.40;65.50;;;;;;5074135;28;19909;-60
2022/10/27 13:18:30;;;;;;;;;;;19.40;65.80;;;;;;5092500;28;19915;-59
2022/10/27 13:21:16;;;;;;;;;;;19.40;65.70;;;;;;5092154;28;19965;-59
2022/10/27 13:23:54;;;;;;;;;;;19.40;65.80;;;;;;5074174;28;19911;-60
2022/10/27 13:26:21;;;;;;;;;;;19.40;65.80;;;;;;5073180;28;19999;-59
2022/10/27 13:28:52;;;;;;;;;;;19.40;65.80;;;;;;5092287;28;19959;-59
2022/10/27 13:31:24;;;;;;;;;;;19.50;65.90;;;;;;5092042;28;19920;-59
2022/10/27 13:34:01;;;;;;;;;;;19.40;65.80;;;;;;5063004;28;19908;-60
2022/10/27 13:36:27;;;;;;;;;;;19.50;65.90;;;;;;5071918;28;20407;-60
2022/10/27 13:39:11;;;;;;;;;;;19.50;65.90;;;;;;5065125;28;19908;-60
2022/10/27 13:41:47;;;;;;;;;;;19.50;65.90;;;;;;5091125;28;19973;-60
2022/10/27 13:44:31;;;;;;;;;;;19.50;65.90;;;;;;5092448;28;20390;-60
2022/10/27 13:47:02;;;;;;;;;;;19.50;65.90;;;;;;5095745;28;19908;-59
2022/10/27 13:49:40;;;;;;;;;;;19.50;65.90;;;;;;5095714;28;19912;-60
2022/10/27 13:52:14;;;;;;;;;;;19.40;65.80;;;;;;5095880;28;19915;-60
2022/10/27 13:54:49;;;;;;;;;;;19.50;65.90;;;;;;5095180;28;19912;-60
2022/10/27 13:57:34;;;;;;;;;;;19.50;65.90;;;;;;5095187;28;20417;-60
2022/10/27 14:00:06;;;;;;;;;;;19.50;65.90;;;;;;5095168;28;20337;-60
2022/10/27 14:02:35;;;;;;;;;;;19.50;66.10;;;;;;5077212;28;19916;-60
2022/10/27 14:05:01;;;;;;;;;;;19.50;65.90;;;;;;5095442;28;19908;-59
2022/10/27 14:07:26;;;;;;;;;;;19.50;65.90;;;;;;5059504;28;20288;-59
2022/10/27 14:09:52;;;;;;;;;;;19.50;65.90;;;;;;5054310;28;19987;-59
2022/10/27 14:12:24;;;;;;;;;;;19.50;65.90;;;;;;5045651;28;20043;-59
2022/10/27 14:14:54;;;;;;;;;;;19.50;65.90;;;;;;5033796;28;19910;-59
2022/10/27 14:17:23;;;;;;;;;;;19.50;65.90;;;;;;5033869;28;19963;-60
2022/10/27 14:20:04;;;;;;;;;;;19.50;66.40;;;;;;5034913;28;20403;-59
2022/10/27 14:22:33;;;;;;;;;;;19.50;65.90;;;;;;5035080;28;19995;-59
2022/10/27 14:25:01;;;;;;;;;;;19.50;65.90;;;;;;5032845;28;19936;-59